Decoded Metar for KGCC (GILLETTE in WY, USA) (IATA:GCC) | Meteo·Mobile Aviation Weather
aviador You're here:

KGCC Decoded Metar

GILLETTE in WY, USA
Report Time2018-12-17 13:53:00
UTC Time2018-12-17 14:29:21
Flight Rules vfr VFR
Wind230° at 14 Gusting to 22 kt
W.Decomp.*RWY 21: 13.9 kt HW 1.9 kt RCW
RWY 16: 7.4 kt HW 11.9 kt RCW
W.Rank230° ranks 3
Current wind is above 230° avg. (11.1)
Visibility9999 m
Phenomena:N/A
Clouds:N/A
Expected CloudBase > 4,000 ft AGL from Temp-Dew spread
CeilingNone
Temp04°C (ISA -2)
Dew Point-6°C (48% RH)
AAT-3.8°C
QNH1014 hPa
Density Alt4,075 ft
Elevation4,331 ft
Report Wrong Elevation
Raw Report
KGCC 171353Z AUTO 23014G22KT 10SM CLR 04/M06 A2994 RMK AO2 PK WND
23028/1254 SLP143 T00391061=

Extra information for KGCC:More info

Metar Taf Metar & Taf Last 4 Metars F.Rules Stats Wind Profile Meteogram Temp Stats Airport Information Weather charts Add Link Nearby VenuesMetar ALERT Operation Metar Decoded Social comments

AIRNAV info for KGCC